sensor_id;sensor_type;location;lat;lon;timestamp;P1;durP1;ratioP1;P2;durP2;ratioP2
77191;SDS011;66172;48.526;8.078;2023-12-20T00:01:47;4.85;;;1.25;;
77191;SDS011;66172;48.526;8.078;2023-12-20T00:04:13;3.97;;;1.00;;
77191;SDS011;66172;48.526;8.078;2023-12-20T00:06:39;4.70;;;1.07;;
77191;SDS011;66172;48.526;8.078;2023-12-20T00:09:05;3.95;;;0.90;;
77191;SDS011;66172;48.526;8.078;2023-12-20T00:11:31;5.35;;;1.13;;
77191;SDS011;66172;48.526;8.078;2023-12-20T00:13:57;4.80;;;1.07;;
77191;SDS011;66172;48.526;8.078;2023-12-20T00:16:23;4.70;;;1.30;;
77191;SDS011;66172;48.526;8.078;2023-12-20T00:18:48;4.32;;;1.05;;
77191;SDS011;66172;48.526;8.078;2023-12-20T00:21:14;4.28;;;1.08;;
77191;SDS011;66172;48.526;8.078;2023-12-20T00:23:40;4.90;;;1.10;;
77191;SDS011;66172;48.526;8.078;2023-12-20T00:26:06;4.18;;;0.88;;
77191;SDS011;66172;48.526;8.078;2023-12-20T00:28:32;3.95;;;0.95;;
77191;SDS011;66172;48.526;8.078;2023-12-20T00:30:58;3.67;;;1.00;;
77191;SDS011;66172;48.526;8.078;2023-12-20T00:33:24;3.92;;;1.15;;
77191;SDS011;66172;48.526;8.078;2023-12-20T00:35:50;3.80;;;1.00;;
77191;SDS011;66172;48.526;8.078;2023-12-20T00:38:15;3.77;;;0.97;;
77191;SDS011;66172;48.526;8.078;2023-12-20T00:40:41;4.03;;;1.00;;
77191;SDS011;66172;48.526;8.078;2023-12-20T00:43:07;5.60;;;1.30;;
77191;SDS011;66172;48.526;8.078;2023-12-20T00:45:33;5.22;;;1.52;;
77191;SDS011;66172;48.526;8.078;2023-12-20T00:47:59;4.90;;;0.93;;
77191;SDS011;66172;48.526;8.078;2023-12-20T00:50:25;4.63;;;0.90;;
77191;SDS011;66172;48.526;8.078;2023-12-20T00:52:51;5.15;;;1.00;;
77191;SDS011;66172;48.526;8.078;2023-12-20T00:55:17;3.60;;;0.70;;
77191;SDS011;66172;48.526;8.078;2023-12-20T00:57:42;3.42;;;0.73;;
77191;SDS011;66172;48.526;8.078;2023-12-20T01:00:09;4.65;;;0.88;;
77191;SDS011;66172;48.526;8.078;2023-12-20T01:02:39;4.90;;;0.93;;
77191;SDS011;66172;48.526;8.078;2023-12-20T01:05:06;4.07;;;0.77;;
77191;SDS011;66172;48.526;8.078;2023-12-20T01:07:32;3.88;;;1.00;;
77191;SDS011;66172;48.526;8.078;2023-12-20T01:09:58;4.35;;;1.23;;
77191;SDS011;66172;48.526;8.078;2023-12-20T01:12:25;4.00;;;0.80;;
77191;SDS011;66172;48.526;8.078;2023-12-20T01:14:51;3.73;;;0.90;;
77191;SDS011;66172;48.526;8.078;2023-12-20T01:17:16;5.00;;;0.80;;
77191;SDS011;66172;48.526;8.078;2023-12-20T01:19:42;3.90;;;0.80;;
77191;SDS011;66172;48.526;8.078;2023-12-20T01:22:08;3.95;;;0.95;;
77191;SDS011;66172;48.526;8.078;2023-12-20T01:24:34;4.10;;;0.70;;
77191;SDS011;66172;48.526;8.078;2023-12-20T01:27:00;4.10;;;0.80;;
77191;SDS011;66172;48.526;8.078;2023-12-20T01:29:26;3.60;;;0.73;;
77191;SDS011;66172;48.526;8.078;2023-12-20T01:31:52;4.37;;;1.07;;
77191;SDS011;66172;48.526;8.078;2023-12-20T01:34:18;3.72;;;1.02;;
77191;SDS011;66172;48.526;8.078;2023-12-20T01:36:43;3.67;;;0.70;;
77191;SDS011;66172;48.526;8.078;2023-12-20T01:39:10;5.53;;;1.30;;
77191;SDS011;66172;48.526;8.078;2023-12-20T01:41:35;4.10;;;1.40;;
77191;SDS011;66172;48.526;8.078;2023-12-20T01:44:01;4.82;;;1.00;;
77191;SDS011;66172;48.526;8.078;2023-12-20T01:46:27;3.97;;;1.05;;
77191;SDS011;66172;48.526;8.078;2023-12-20T01:48:53;3.28;;;0.60;;
77191;SDS011;66172;48.526;8.078;2023-12-20T01:51:19;3.30;;;0.63;;
77191;SDS011;66172;48.526;8.078;2023-12-20T01:53:46;4.40;;;0.70;;
77191;SDS011;66172;48.526;8.078;2023-12-20T01:56:12;3.40;;;0.73;;
77191;SDS011;66172;48.526;8.078;2023-12-20T01:58:45;3.95;;;0.60;;
77191;SDS011;66172;48.526;8.078;2023-12-20T02:01:13;4.25;;;1.38;;
77191;SDS011;66172;48.526;8.078;2023-12-20T02:03:40;3.73;;;1.30;;
77191;SDS011;66172;48.526;8.078;2023-12-20T02:06:07;3.88;;;0.80;;
77191;SDS011;66172;48.526;8.078;2023-12-20T02:08:34;3.45;;;0.80;;
77191;SDS011;66172;48.526;8.078;2023-12-20T02:11:00;3.28;;;0.70;;
77191;SDS011;66172;48.526;8.078;2023-12-20T02:13:26;3.53;;;0.80;;
77191;SDS011;66172;48.526;8.078;2023-12-20T02:15:52;4.10;;;0.73;;
77191;SDS011;66172;48.526;8.078;2023-12-20T02:18:18;3.67;;;0.63;;
77191;SDS011;66172;48.526;8.078;2023-12-20T02:20:44;3.80;;;0.80;;
77191;SDS011;66172;48.526;8.078;2023-12-20T02:23:10;3.05;;;0.50;;
77191;SDS011;66172;48.526;8.078;2023-12-20T02:25:36;3.10;;;0.67;;
77191;SDS011;66172;48.526;8.078;2023-12-20T02:28:03;3.08;;;0.60;;
77191;SDS011;66172;48.526;8.078;2023-12-20T02:30:31;2.55;;;0.32;;
77191;SDS011;66172;48.526;8.078;2023-12-20T02:32:56;2.75;;;0.40;;
77191;SDS011;66172;48.526;8.078;2023-12-20T02:35:25;2.87;;;0.47;;
77191;SDS011;66172;48.526;8.078;2023-12-20T02:37:51;2.90;;;0.45;;
77191;SDS011;66172;48.526;8.078;2023-12-20T02:40:17;3.10;;;0.60;;
77191;SDS011;66172;48.526;8.078;2023-12-20T02:42:43;3.90;;;0.55;;
77191;SDS011;66172;48.526;8.078;2023-12-20T02:45:09;3.83;;;0.47;;
77191;SDS011;66172;48.526;8.078;2023-12-20T02:47:35;3.55;;;0.60;;
77191;SDS011;66172;48.526;8.078;2023-12-20T02:50:00;3.30;;;0.70;;
77191;SDS011;66172;48.526;8.078;2023-12-20T02:52:27;3.13;;;0.50;;
77191;SDS011;66172;48.526;8.078;2023-12-20T02:54:54;3.08;;;0.60;;
77191;SDS011;66172;48.526;8.078;2023-12-20T02:57:20;3.97;;;0.40;;
77191;SDS011;66172;48.526;8.078;2023-12-20T02:59:45;3.10;;;0.50;;
77191;SDS011;66172;48.526;8.078;2023-12-20T03:02:11;2.17;;;0.30;;
77191;SDS011;66172;48.526;8.078;2023-12-20T03:04:37;3.22;;;0.30;;
77191;SDS011;66172;48.526;8.078;2023-12-20T03:07:03;2.97;;;0.30;;
77191;SDS011;66172;48.526;8.078;2023-12-20T03:09:29;2.70;;;0.30;;
77191;SDS011;66172;48.526;8.078;2023-12-20T03:11:55;2.97;;;0.43;;
77191;SDS011;66172;48.526;8.078;2023-12-20T03:14:21;2.42;;;0.40;;
77191;SDS011;66172;48.526;8.078;2023-12-20T03:16:49;2.95;;;0.40;;
77191;SDS011;66172;48.526;8.078;2023-12-20T03:19:16;3.30;;;0.43;;
77191;SDS011;66172;48.526;8.078;2023-12-20T03:21:43;2.97;;;0.45;;
77191;SDS011;66172;48.526;8.078;2023-12-20T03:24:09;2.67;;;0.30;;
77191;SDS011;66172;48.526;8.078;2023-12-20T03:26:35;3.90;;;0.50;;
77191;SDS011;66172;48.526;8.078;2023-12-20T03:29:01;2.20;;;0.30;;
77191;SDS011;66172;48.526;8.078;2023-12-20T03:31:26;2.33;;;0.20;;
77191;SDS011;66172;48.526;8.078;2023-12-20T03:33:52;2.10;;;0.20;;
77191;SDS011;66172;48.526;8.078;2023-12-20T03:36:19;3.00;;;0.30;;
77191;SDS011;66172;48.526;8.078;2023-12-20T03:38:45;2.55;;;0.30;;
77191;SDS011;66172;48.526;8.078;2023-12-20T03:41:11;3.65;;;0.30;;
77191;SDS011;66172;48.526;8.078;2023-12-20T03:43:37;2.53;;;0.40;;
77191;SDS011;66172;48.526;8.078;2023-12-20T03:46:03;2.50;;;0.30;;
77191;SDS011;66172;48.526;8.078;2023-12-20T03:48:30;2.80;;;0.38;;
77191;SDS011;66172;48.526;8.078;2023-12-20T03:50:56;3.00;;;0.30;;
77191;SDS011;66172;48.526;8.078;2023-12-20T03:53:22;2.50;;;0.30;;
77191;SDS011;66172;48.526;8.078;2023-12-20T03:55:48;3.00;;;0.50;;
77191;SDS011;66172;48.526;8.078;2023-12-20T03:58:14;4.15;;;0.40;;
77191;SDS011;66172;48.526;8.078;2023-12-20T04:00:40;2.75;;;0.20;;
77191;SDS011;66172;48.526;8.078;2023-12-20T04:03:06;2.60;;;0.40;;
77191;SDS011;66172;48.526;8.078;2023-12-20T04:05:32;2.60;;;0.30;;
77191;SDS011;66172;48.526;8.078;2023-12-20T04:07:59;2.78;;;0.35;;
77191;SDS011;66172;48.526;8.078;2023-12-20T04:10:26;4.30;;;0.57;;
77191;SDS011;66172;48.526;8.078;2023-12-20T04:12:53;2.97;;;0.40;;
77191;SDS011;66172;48.526;8.078;2023-12-20T04:15:20;2.97;;;0.30;;
77191;SDS011;66172;48.526;8.078;2023-12-20T04:17:46;2.00;;;0.30;;
77191;SDS011;66172;48.526;8.078;2023-12-20T04:20:12;4.15;;;0.60;;
77191;SDS011;66172;48.526;8.078;2023-12-20T04:22:38;2.47;;;0.30;;
77191;SDS011;66172;48.526;8.078;2023-12-20T04:25:03;2.72;;;0.20;;
77191;SDS011;66172;48.526;8.078;2023-12-20T04:27:30;2.42;;;0.15;;
77191;SDS011;66172;48.526;8.078;2023-12-20T04:29:55;2.08;;;0.20;;
77191;SDS011;66172;48.526;8.078;2023-12-20T04:32:21;2.77;;;0.33;;
77191;SDS011;66172;48.526;8.078;2023-12-20T04:34:47;3.40;;;0.40;;
77191;SDS011;66172;48.526;8.078;2023-12-20T04:37:13;2.53;;;0.30;;
77191;SDS011;66172;48.526;8.078;2023-12-20T04:39:39;2.63;;;0.50;;
77191;SDS011;66172;48.526;8.078;2023-12-20T04:42:06;2.53;;;0.50;;
77191;SDS011;66172;48.526;8.078;2023-12-20T04:44:33;3.03;;;0.40;;
77191;SDS011;66172;48.526;8.078;2023-12-20T04:46:59;3.90;;;0.93;;
77191;SDS011;66172;48.526;8.078;2023-12-20T04:49:25;3.50;;;0.60;;
77191;SDS011;66172;48.526;8.078;2023-12-20T04:51:51;3.70;;;0.60;;
77191;SDS011;66172;48.526;8.078;2023-12-20T04:54:17;3.50;;;0.50;;
77191;SDS011;66172;48.526;8.078;2023-12-20T04:56:43;4.45;;;0.70;;
77191;SDS011;66172;48.526;8.078;2023-12-20T04:59:08;4.10;;;0.80;;
77191;SDS011;66172;48.526;8.078;2023-12-20T05:01:34;2.80;;;0.50;;
77191;SDS011;66172;48.526;8.078;2023-12-20T05:04:00;3.58;;;0.55;;
77191;SDS011;66172;48.526;8.078;2023-12-20T05:06:26;3.53;;;0.67;;
77191;SDS011;66172;48.526;8.078;2023-12-20T05:08:52;3.20;;;0.70;;
77191;SDS011;66172;48.526;8.078;2023-12-20T05:11:18;2.95;;;0.40;;
77191;SDS011;66172;48.526;8.078;2023-12-20T05:13:44;3.20;;;0.60;;
77191;SDS011;66172;48.526;8.078;2023-12-20T05:16:10;2.80;;;0.40;;
77191;SDS011;66172;48.526;8.078;2023-12-20T05:18:36;2.85;;;0.43;;
77191;SDS011;66172;48.526;8.078;2023-12-20T05:21:02;2.30;;;0.30;;
77191;SDS011;66172;48.526;8.078;2023-12-20T05:23:28;2.33;;;0.30;;
77191;SDS011;66172;48.526;8.078;2023-12-20T05:25:53;2.70;;;0.40;;
77191;SDS011;66172;48.526;8.078;2023-12-20T05:28:19;2.17;;;0.30;;
77191;SDS011;66172;48.526;8.078;2023-12-20T05:30:46;2.47;;;0.40;;
77191;SDS011;66172;48.526;8.078;2023-12-20T05:33:12;1.90;;;0.20;;
77191;SDS011;66172;48.526;8.078;2023-12-20T05:35:37;3.63;;;0.30;;
77191;SDS011;66172;48.526;8.078;2023-12-20T05:38:03;2.20;;;0.20;;
77191;SDS011;66172;48.526;8.078;2023-12-20T05:40:29;2.25;;;0.30;;
77191;SDS011;66172;48.526;8.078;2023-12-20T05:42:55;2.33;;;0.20;;
77191;SDS011;66172;48.526;8.078;2023-12-20T05:45:21;3.28;;;0.40;;
77191;SDS011;66172;48.526;8.078;2023-12-20T05:47:47;2.30;;;0.30;;
77191;SDS011;66172;48.526;8.078;2023-12-20T05:50:13;2.90;;;0.40;;
77191;SDS011;66172;48.526;8.078;2023-12-20T05:52:38;2.40;;;0.30;;
77191;SDS011;66172;48.526;8.078;2023-12-20T05:55:04;2.40;;;0.20;;
77191;SDS011;66172;48.526;8.078;2023-12-20T05:57:30;2.85;;;0.40;;
77191;SDS011;66172;48.526;8.078;2023-12-20T05:59:56;3.70;;;0.43;;
77191;SDS011;66172;48.526;8.078;2023-12-20T06:02:22;2.78;;;0.38;;
77191;SDS011;66172;48.526;8.078;2023-12-20T06:04:48;3.55;;;0.57;;
77191;SDS011;66172;48.526;8.078;2023-12-20T06:07:14;6.03;;;1.50;;
77191;SDS011;66172;48.526;8.078;2023-12-20T06:09:41;6.17;;;1.10;;
77191;SDS011;66172;48.526;8.078;2023-12-20T06:12:07;4.32;;;0.60;;
77191;SDS011;66172;48.526;8.078;2023-12-20T06:14:33;4.95;;;1.30;;
77191;SDS011;66172;48.526;8.078;2023-12-20T06:17:00;5.18;;;0.80;;
77191;SDS011;66172;48.526;8.078;2023-12-20T06:19:26;4.40;;;1.13;;
77191;SDS011;66172;48.526;8.078;2023-12-20T06:21:53;5.00;;;0.70;;
77191;SDS011;66172;48.526;8.078;2023-12-20T06:24:18;4.22;;;0.88;;
77191;SDS011;66172;48.526;8.078;2023-12-20T06:26:44;3.88;;;0.80;;
77191;SDS011;66172;48.526;8.078;2023-12-20T06:29:10;3.40;;;0.50;;
77191;SDS011;66172;48.526;8.078;2023-12-20T06:31:36;3.25;;;0.40;;
77191;SDS011;66172;48.526;8.078;2023-12-20T06:34:02;6.15;;;1.70;;
77191;SDS011;66172;48.526;8.078;2023-12-20T06:36:28;5.55;;;1.55;;
77191;SDS011;66172;48.526;8.078;2023-12-20T06:38:54;6.03;;;0.80;;
77191;SDS011;66172;48.526;8.078;2023-12-20T06:41:20;4.00;;;1.20;;
77191;SDS011;66172;48.526;8.078;2023-12-20T06:43:46;5.22;;;1.13;;
77191;SDS011;66172;48.526;8.078;2023-12-20T06:46:12;4.90;;;0.95;;
77191;SDS011;66172;48.526;8.078;2023-12-20T06:48:39;3.03;;;0.50;;
77191;SDS011;66172;48.526;8.078;2023-12-20T06:51:05;4.45;;;1.02;;
77191;SDS011;66172;48.526;8.078;2023-12-20T06:53:31;5.25;;;1.48;;
77191;SDS011;66172;48.526;8.078;2023-12-20T06:55:57;5.30;;;1.80;;
77191;SDS011;66172;48.526;8.078;2023-12-20T06:58:23;6.57;;;2.40;;
77191;SDS011;66172;48.526;8.078;2023-12-20T07:00:49;4.47;;;1.20;;
77191;SDS011;66172;48.526;8.078;2023-12-20T07:03:17;5.30;;;1.48;;
77191;SDS011;66172;48.526;8.078;2023-12-20T07:05:43;4.72;;;1.17;;
77191;SDS011;66172;48.526;8.078;2023-12-20T07:08:09;3.97;;;1.00;;
77191;SDS011;66172;48.526;8.078;2023-12-20T07:10:36;3.90;;;1.00;;
77191;SDS011;66172;48.526;8.078;2023-12-20T07:13:02;3.75;;;1.13;;
77191;SDS011;66172;48.526;8.078;2023-12-20T07:15:28;4.10;;;1.23;;
77191;SDS011;66172;48.526;8.078;2023-12-20T07:17:55;5.95;;;2.30;;
77191;SDS011;66172;48.526;8.078;2023-12-20T07:20:21;5.43;;;1.63;;
77191;SDS011;66172;48.526;8.078;2023-12-20T07:22:46;6.18;;;1.90;;
77191;SDS011;66172;48.526;8.078;2023-12-20T07:25:12;4.53;;;1.48;;
77191;SDS011;66172;48.526;8.078;2023-12-20T07:27:38;4.97;;;1.60;;
77191;SDS011;66172;48.526;8.078;2023-12-20T07:30:04;4.40;;;1.43;;
77191;SDS011;66172;48.526;8.078;2023-12-20T07:32:31;10.20;;;5.55;;
77191;SDS011;66172;48.526;8.078;2023-12-20T07:34:57;6.88;;;3.00;;
77191;SDS011;66172;48.526;8.078;2023-12-20T07:37:23;5.15;;;2.13;;
77191;SDS011;66172;48.526;8.078;2023-12-20T07:39:49;3.47;;;0.90;;
77191;SDS011;66172;48.526;8.078;2023-12-20T07:42:15;4.55;;;1.08;;
77191;SDS011;66172;48.526;8.078;2023-12-20T07:44:41;3.63;;;1.08;;
77191;SDS011;66172;48.526;8.078;2023-12-20T07:47:07;4.20;;;1.10;;
77191;SDS011;66172;48.526;8.078;2023-12-20T07:49:33;5.80;;;2.37;;
77191;SDS011;66172;48.526;8.078;2023-12-20T07:51:59;6.82;;;2.30;;
77191;SDS011;66172;48.526;8.078;2023-12-20T07:54:25;6.35;;;2.70;;
77191;SDS011;66172;48.526;8.078;2023-12-20T07:56:51;5.57;;;2.00;;
77191;SDS011;66172;48.526;8.078;2023-12-20T07:59:16;5.22;;;1.75;;
77191;SDS011;66172;48.526;8.078;2023-12-20T08:01:42;5.75;;;2.30;;
77191;SDS011;66172;48.526;8.078;2023-12-20T08:04:08;6.15;;;2.42;;
77191;SDS011;66172;48.526;8.078;2023-12-20T08:06:34;7.13;;;2.80;;
77191;SDS011;66172;48.526;8.078;2023-12-20T08:09:00;5.72;;;2.50;;
77191;SDS011;66172;48.526;8.078;2023-12-20T08:11:26;7.13;;;2.65;;
77191;SDS011;66172;48.526;8.078;2023-12-20T08:13:52;7.13;;;2.63;;
77191;SDS011;66172;48.526;8.078;2023-12-20T08:16:18;6.72;;;2.45;;
77191;SDS011;66172;48.526;8.078;2023-12-20T08:18:44;6.45;;;2.40;;
77191;SDS011;66172;48.526;8.078;2023-12-20T08:21:09;5.90;;;2.50;;
77191;SDS011;66172;48.526;8.078;2023-12-20T08:23:37;6.13;;;2.40;;
77191;SDS011;66172;48.526;8.078;2023-12-20T08:26:03;7.45;;;2.38;;
77191;SDS011;66172;48.526;8.078;2023-12-20T08:28:33;5.97;;;2.55;;
77191;SDS011;66172;48.526;8.078;2023-12-20T08:30:59;8.05;;;3.08;;
77191;SDS011;66172;48.526;8.078;2023-12-20T08:33:25;8.80;;;3.30;;
77191;SDS011;66172;48.526;8.078;2023-12-20T08:35:51;8.73;;;2.85;;
77191;SDS011;66172;48.526;8.078;2023-12-20T08:38:17;6.13;;;2.53;;
77191;SDS011;66172;48.526;8.078;2023-12-20T08:40:43;5.53;;;2.53;;
77191;SDS011;66172;48.526;8.078;2023-12-20T08:43:10;8.55;;;2.63;;
77191;SDS011;66172;48.526;8.078;2023-12-20T08:45:36;5.53;;;2.63;;
77191;SDS011;66172;48.526;8.078;2023-12-20T08:48:02;5.28;;;2.47;;
77191;SDS011;66172;48.526;8.078;2023-12-20T08:50:28;8.90;;;3.35;;
77191;SDS011;66172;48.526;8.078;2023-12-20T08:52:55;8.82;;;2.90;;
77191;SDS011;66172;48.526;8.078;2023-12-20T08:55:21;6.88;;;2.60;;
77191;SDS011;66172;48.526;8.078;2023-12-20T08:57:47;6.20;;;2.50;;
77191;SDS011;66172;48.526;8.078;2023-12-20T09:00:14;7.30;;;2.40;;
77191;SDS011;66172;48.526;8.078;2023-12-20T09:02:40;6.80;;;2.47;;
77191;SDS011;66172;48.526;8.078;2023-12-20T09:05:07;8.02;;;3.08;;
77191;SDS011;66172;48.526;8.078;2023-12-20T09:07:33;5.93;;;2.70;;
77191;SDS011;66172;48.526;8.078;2023-12-20T09:09:58;6.82;;;3.00;;
77191;SDS011;66172;48.526;8.078;2023-12-20T09:12:24;7.80;;;3.35;;
77191;SDS011;66172;48.526;8.078;2023-12-20T09:14:51;8.57;;;3.20;;
77191;SDS011;66172;48.526;8.078;2023-12-20T09:17:18;10.13;;;4.27;;
77191;SDS011;66172;48.526;8.078;2023-12-20T09:19:44;8.93;;;3.50;;
77191;SDS011;66172;48.526;8.078;2023-12-20T09:22:10;7.15;;;3.58;;
77191;SDS011;66172;48.526;8.078;2023-12-20T09:24:37;8.13;;;3.53;;
77191;SDS011;66172;48.526;8.078;2023-12-20T09:27:04;7.45;;;3.45;;
77191;SDS011;66172;48.526;8.078;2023-12-20T09:29:31;7.67;;;3.30;;
77191;SDS011;66172;48.526;8.078;2023-12-20T09:31:57;7.10;;;3.03;;
77191;SDS011;66172;48.526;8.078;2023-12-20T09:34:23;8.55;;;2.92;;
77191;SDS011;66172;48.526;8.078;2023-12-20T09:36:49;8.50;;;3.08;;
77191;SDS011;66172;48.526;8.078;2023-12-20T09:39:16;8.53;;;4.10;;
77191;SDS011;66172;48.526;8.078;2023-12-20T09:42:07;20.02;;;9.13;;
77191;SDS011;66172;48.526;8.078;2023-12-20T09:44:33;8.98;;;4.38;;
77191;SDS011;66172;48.526;8.078;2023-12-20T09:47:03;7.05;;;3.10;;
77191;SDS011;66172;48.526;8.078;2023-12-20T09:49:29;8.27;;;3.00;;
77191;SDS011;66172;48.526;8.078;2023-12-20T09:51:56;8.20;;;3.17;;
77191;SDS011;66172;48.526;8.078;2023-12-20T09:54:22;7.43;;;2.20;;
77191;SDS011;66172;48.526;8.078;2023-12-20T09:56:49;6.10;;;1.90;;
77191;SDS011;66172;48.526;8.078;2023-12-20T09:59:15;7.30;;;2.38;;
77191;SDS011;66172;48.526;8.078;2023-12-20T10:01:42;7.78;;;2.50;;
77191;SDS011;66172;48.526;8.078;2023-12-20T10:04:09;7.77;;;3.07;;
77191;SDS011;66172;48.526;8.078;2023-12-20T10:06:43;5.85;;;2.33;;
77191;SDS011;66172;48.526;8.078;2023-12-20T10:09:09;8.48;;;2.55;;
77191;SDS011;66172;48.526;8.078;2023-12-20T10:11:36;8.60;;;2.38;;
77191;SDS011;66172;48.526;8.078;2023-12-20T10:14:05;7.13;;;1.98;;
77191;SDS011;66172;48.526;8.078;2023-12-20T10:16:32;6.63;;;1.30;;
77191;SDS011;66172;48.526;8.078;2023-12-20T10:18:59;6.68;;;0.98;;
77191;SDS011;66172;48.526;8.078;2023-12-20T10:21:29;8.00;;;1.60;;
77191;SDS011;66172;48.526;8.078;2023-12-20T10:23:56;6.90;;;1.40;;
77191;SDS011;66172;48.526;8.078;2023-12-20T10:26:23;5.15;;;1.10;;
77191;SDS011;66172;48.526;8.078;2023-12-20T10:28:51;4.67;;;0.97;;
77191;SDS011;66172;48.526;8.078;2023-12-20T10:31:34;5.00;;;1.10;;
77191;SDS011;66172;48.526;8.078;2023-12-20T10:34:01;6.93;;;1.30;;
77191;SDS011;66172;48.526;8.078;2023-12-20T10:36:29;6.15;;;1.10;;
77191;SDS011;66172;48.526;8.078;2023-12-20T10:38:58;4.80;;;1.10;;
77191;SDS011;66172;48.526;8.078;2023-12-20T10:41:26;6.87;;;1.20;;
77191;SDS011;66172;48.526;8.078;2023-12-20T10:43:54;7.80;;;1.00;;
77191;SDS011;66172;48.526;8.078;2023-12-20T10:46:21;6.78;;;1.45;;
77191;SDS011;66172;48.526;8.078;2023-12-20T10:48:47;6.75;;;1.30;;
77191;SDS011;66172;48.526;8.078;2023-12-20T10:51:14;5.95;;;1.65;;
77191;SDS011;66172;48.526;8.078;2023-12-20T10:53:43;7.60;;;1.80;;
77191;SDS011;66172;48.526;8.078;2023-12-20T10:56:11;6.28;;;1.00;;
77191;SDS011;66172;48.526;8.078;2023-12-20T10:58:42;5.43;;;0.95;;
77191;SDS011;66172;48.526;8.078;2023-12-20T11:01:12;6.65;;;0.90;;
77191;SDS011;66172;48.526;8.078;2023-12-20T11:03:43;8.75;;;1.20;;
77191;SDS011;66172;48.526;8.078;2023-12-20T11:14:29;7.07;;;1.33;;
77191;SDS011;66172;48.526;8.078;2023-12-20T11:17:09;7.18;;;1.52;;
77191;SDS011;66172;48.526;8.078;2023-12-20T11:22:26;9.02;;;1.90;;
77191;SDS011;66172;48.526;8.078;2023-12-20T11:24:58;8.02;;;1.40;;
77191;SDS011;66172;48.526;8.078;2023-12-20T11:27:28;5.53;;;1.50;;
77191;SDS011;66172;48.526;8.078;2023-12-20T11:29:55;11.63;;;1.45;;
77191;SDS011;66172;48.526;8.078;2023-12-20T11:34:51;8.60;;;2.10;;
77191;SDS011;66172;48.526;8.078;2023-12-20T11:37:19;8.00;;;2.08;;
77191;SDS011;66172;48.526;8.078;2023-12-20T11:39:53;9.75;;;2.40;;
77191;SDS011;66172;48.526;8.078;2023-12-20T11:42:25;6.22;;;2.22;;
77191;SDS011;66172;48.526;8.078;2023-12-20T11:44:51;7.97;;;1.83;;
77191;SDS011;66172;48.526;8.078;2023-12-20T11:47:17;7.55;;;2.60;;
77191;SDS011;66172;48.526;8.078;2023-12-20T11:49:46;7.05;;;1.58;;
77191;SDS011;66172;48.526;8.078;2023-12-20T11:52:12;8.73;;;2.20;;
77191;SDS011;66172;48.526;8.078;2023-12-20T11:54:39;9.05;;;3.70;;
77191;SDS011;66172;48.526;8.078;2023-12-20T11:57:05;7.13;;;2.00;;
77191;SDS011;66172;48.526;8.078;2023-12-20T11:59:31;8.90;;;3.60;;
77191;SDS011;66172;48.526;8.078;2023-12-20T12:01:58;9.30;;;2.17;;
77191;SDS011;66172;48.526;8.078;2023-12-20T12:04:26;6.75;;;2.35;;
77191;SDS011;66172;48.526;8.078;2023-12-20T12:06:53;7.73;;;1.80;;
77191;SDS011;66172;48.526;8.078;2023-12-20T12:09:19;10.98;;;4.32;;
77191;SDS011;66172;48.526;8.078;2023-12-20T12:11:45;8.35;;;2.97;;
77191;SDS011;66172;48.526;8.078;2023-12-20T12:14:11;8.15;;;3.38;;
77191;SDS011;66172;48.526;8.078;2023-12-20T12:16:37;8.33;;;3.03;;
77191;SDS011;66172;48.526;8.078;2023-12-20T12:19:03;18.77;;;7.30;;
77191;SDS011;66172;48.526;8.078;2023-12-20T12:21:30;8.90;;;2.55;;
77191;SDS011;66172;48.526;8.078;2023-12-20T12:24:06;6.80;;;1.00;;
77191;SDS011;66172;48.526;8.078;2023-12-20T12:26:32;7.83;;;1.43;;
77191;SDS011;66172;48.526;8.078;2023-12-20T12:28:58;5.97;;;1.30;;
77191;SDS011;66172;48.526;8.078;2023-12-20T12:31:26;7.60;;;1.45;;
77191;SDS011;66172;48.526;8.078;2023-12-20T12:33:53;6.00;;;1.30;;
77191;SDS011;66172;48.526;8.078;2023-12-20T12:36:19;5.77;;;1.60;;
77191;SDS011;66172;48.526;8.078;2023-12-20T12:38:45;6.32;;;1.33;;
77191;SDS011;66172;48.526;8.078;2023-12-20T12:41:12;6.63;;;1.23;;
77191;SDS011;66172;48.526;8.078;2023-12-20T12:43:38;5.97;;;1.13;;
77191;SDS011;66172;48.526;8.078;2023-12-20T12:46:04;6.83;;;1.47;;
77191;SDS011;66172;48.526;8.078;2023-12-20T12:48:30;11.18;;;3.33;;
77191;SDS011;66172;48.526;8.078;2023-12-20T12:50:56;7.13;;;1.30;;
77191;SDS011;66172;48.526;8.078;2023-12-20T12:53:27;7.90;;;0.85;;
77191;SDS011;66172;48.526;8.078;2023-12-20T12:55:53;8.63;;;1.27;;
77191;SDS011;66172;48.526;8.078;2023-12-20T12:58:20;8.95;;;1.30;;
77191;SDS011;66172;48.526;8.078;2023-12-20T13:00:46;5.93;;;1.00;;
77191;SDS011;66172;48.526;8.078;2023-12-20T13:03:12;6.70;;;1.20;;
77191;SDS011;66172;48.526;8.078;2023-12-20T13:05:38;5.28;;;1.00;;
77191;SDS011;66172;48.526;8.078;2023-12-20T13:08:04;6.20;;;0.80;;
77191;SDS011;66172;48.526;8.078;2023-12-20T13:10:30;7.13;;;1.13;;
77191;SDS011;66172;48.526;8.078;2023-12-20T13:12:56;8.55;;;1.10;;
77191;SDS011;66172;48.526;8.078;2023-12-20T13:15:22;5.27;;;0.80;;
77191;SDS011;66172;48.526;8.078;2023-12-20T13:17:48;7.13;;;1.02;;
77191;SDS011;66172;48.526;8.078;2023-12-20T13:20:14;9.60;;;1.25;;
77191;SDS011;66172;48.526;8.078;2023-12-20T13:22:40;5.35;;;1.00;;
77191;SDS011;66172;48.526;8.078;2023-12-20T13:25:06;6.27;;;1.00;;
77191;SDS011;66172;48.526;8.078;2023-12-20T13:27:32;6.32;;;0.70;;
77191;SDS011;66172;48.526;8.078;2023-12-20T13:29:58;8.15;;;0.98;;
77191;SDS011;66172;48.526;8.078;2023-12-20T13:32:24;6.60;;;0.95;;
77191;SDS011;66172;48.526;8.078;2023-12-20T13:34:50;6.07;;;0.77;;
77191;SDS011;66172;48.526;8.078;2023-12-20T13:37:16;9.97;;;1.33;;
77191;SDS011;66172;48.526;8.078;2023-12-20T13:39:42;7.03;;;0.77;;
77191;SDS011;66172;48.526;8.078;2023-12-20T13:42:08;6.32;;;0.98;;
77191;SDS011;66172;48.526;8.078;2023-12-20T13:44:34;6.30;;;1.17;;
77191;SDS011;66172;48.526;8.078;2023-12-20T13:46:59;6.65;;;1.20;;
77191;SDS011;66172;48.526;8.078;2023-12-20T13:49:26;7.47;;;1.90;;
77191;SDS011;66172;48.526;8.078;2023-12-20T13:51:53;6.68;;;1.00;;
77191;SDS011;66172;48.526;8.078;2023-12-20T13:54:23;5.20;;;0.93;;
77191;SDS011;66172;48.526;8.078;2023-12-20T13:56:49;9.95;;;1.25;;
77191;SDS011;66172;48.526;8.078;2023-12-20T13:59:15;8.25;;;1.15;;
77191;SDS011;66172;48.526;8.078;2023-12-20T14:01:41;6.45;;;1.05;;
77191;SDS011;66172;48.526;8.078;2023-12-20T14:04:07;6.63;;;1.40;;
77191;SDS011;66172;48.526;8.078;2023-12-20T14:06:33;6.72;;;1.52;;
77191;SDS011;66172;48.526;8.078;2023-12-20T14:08:59;10.77;;;2.20;;
77191;SDS011;66172;48.526;8.078;2023-12-20T14:11:28;7.35;;;1.65;;
77191;SDS011;66172;48.526;8.078;2023-12-20T14:13:54;8.47;;;1.00;;
77191;SDS011;66172;48.526;8.078;2023-12-20T14:16:24;9.95;;;1.38;;
77191;SDS011;66172;48.526;8.078;2023-12-20T14:18:50;6.80;;;1.27;;
77191;SDS011;66172;48.526;8.078;2023-12-20T14:21:17;8.85;;;1.23;;
77191;SDS011;66172;48.526;8.078;2023-12-20T14:23:45;8.48;;;1.45;;
77191;SDS011;66172;48.526;8.078;2023-12-20T14:26:11;7.40;;;1.30;;
77191;SDS011;66172;48.526;8.078;2023-12-20T14:28:42;8.45;;;1.70;;
77191;SDS011;66172;48.526;8.078;2023-12-20T14:31:09;8.48;;;1.55;;
77191;SDS011;66172;48.526;8.078;2023-12-20T14:33:35;4.85;;;0.93;;
77191;SDS011;66172;48.526;8.078;2023-12-20T14:36:03;6.45;;;1.60;;
77191;SDS011;66172;48.526;8.078;2023-12-20T14:38:31;7.17;;;1.10;;
77191;SDS011;66172;48.526;8.078;2023-12-20T14:40:57;7.68;;;1.75;;
77191;SDS011;66172;48.526;8.078;2023-12-20T14:43:23;7.88;;;1.63;;
77191;SDS011;66172;48.526;8.078;2023-12-20T14:45:49;7.70;;;1.17;;
77191;SDS011;66172;48.526;8.078;2023-12-20T14:48:16;5.63;;;1.20;;
77191;SDS011;66172;48.526;8.078;2023-12-20T14:50:42;5.45;;;1.10;;
77191;SDS011;66172;48.526;8.078;2023-12-20T14:53:08;7.88;;;1.15;;
77191;SDS011;66172;48.526;8.078;2023-12-20T14:55:34;7.90;;;1.58;;
77191;SDS011;66172;48.526;8.078;2023-12-20T14:58:00;8.57;;;1.50;;